sensor_id;sensor_type;location;lat;lon;timestamp;P1;durP1;ratioP1;P2;durP2;ratioP2
32096;SDS011;18610;49.916;8.284;2023-04-15T00:00:44;13.48;;;4.22;;
32096;SDS011;18610;49.916;8.284;2023-04-15T00:03:11;9.27;;;3.53;;
32096;SDS011;18610;49.916;8.284;2023-04-15T00:05:38;9.05;;;4.18;;
32096;SDS011;18610;49.916;8.284;2023-04-15T00:08:05;13.15;;;3.70;;
32096;SDS011;18610;49.916;8.284;2023-04-15T00:10:32;13.43;;;3.70;;
32096;SDS011;18610;49.916;8.284;2023-04-15T00:13:00;11.45;;;4.05;;
32096;SDS011;18610;49.916;8.284;2023-04-15T00:15:28;18.08;;;4.28;;
32096;SDS011;18610;49.916;8.284;2023-04-15T00:17:55;14.10;;;4.03;;
32096;SDS011;18610;49.916;8.284;2023-04-15T00:20:21;11.88;;;4.30;;
32096;SDS011;18610;49.916;8.284;2023-04-15T00:22:48;11.48;;;3.63;;
32096;SDS011;18610;49.916;8.284;2023-04-15T00:25:15;11.10;;;3.72;;
32096;SDS011;18610;49.916;8.284;2023-04-15T00:27:42;12.15;;;4.80;;
32096;SDS011;18610;49.916;8.284;2023-04-15T00:30:10;19.98;;;5.50;;
32096;SDS011;18610;49.916;8.284;2023-04-15T00:32:37;12.45;;;4.18;;
32096;SDS011;18610;49.916;8.284;2023-04-15T00:35:04;11.55;;;4.28;;
32096;SDS011;18610;49.916;8.284;2023-04-15T00:37:31;17.27;;;4.07;;
32096;SDS011;18610;49.916;8.284;2023-04-15T00:39:59;20.30;;;4.28;;
32096;SDS011;18610;49.916;8.284;2023-04-15T00:42:25;13.45;;;3.97;;
32096;SDS011;18610;49.916;8.284;2023-04-15T00:44:53;13.98;;;4.57;;
32096;SDS011;18610;49.916;8.284;2023-04-15T00:47:22;12.50;;;3.58;;
32096;SDS011;18610;49.916;8.284;2023-04-15T00:49:49;12.57;;;4.05;;
32096;SDS011;18610;49.916;8.284;2023-04-15T00:52:17;14.98;;;4.10;;
32096;SDS011;18610;49.916;8.284;2023-04-15T00:54:44;13.00;;;4.32;;
32096;SDS011;18610;49.916;8.284;2023-04-15T00:57:11;17.45;;;4.10;;
32096;SDS011;18610;49.916;8.284;2023-04-15T00:59:40;14.23;;;3.45;;
32096;SDS011;18610;49.916;8.284;2023-04-15T01:02:07;9.43;;;4.07;;
32096;SDS011;18610;49.916;8.284;2023-04-15T01:04:35;12.82;;;3.83;;
32096;SDS011;18610;49.916;8.284;2023-04-15T01:07:03;12.70;;;4.03;;
32096;SDS011;18610;49.916;8.284;2023-04-15T01:09:31;11.55;;;3.72;;
32096;SDS011;18610;49.916;8.284;2023-04-15T01:11:57;18.00;;;3.38;;
32096;SDS011;18610;49.916;8.284;2023-04-15T01:14:24;14.70;;;4.18;;
32096;SDS011;18610;49.916;8.284;2023-04-15T01:16:51;7.78;;;3.28;;
32096;SDS011;18610;49.916;8.284;2023-04-15T01:19:18;12.57;;;4.25;;
32096;SDS011;18610;49.916;8.284;2023-04-15T01:21:47;13.38;;;4.05;;
32096;SDS011;18610;49.916;8.284;2023-04-15T01:24:14;10.48;;;3.70;;
32096;SDS011;18610;49.916;8.284;2023-04-15T01:26:45;12.10;;;4.38;;
32096;SDS011;18610;49.916;8.284;2023-04-15T01:29:13;9.45;;;3.35;;
32096;SDS011;18610;49.916;8.284;2023-04-15T01:31:43;7.63;;;3.13;;
32096;SDS011;18610;49.916;8.284;2023-04-15T01:34:15;9.10;;;3.08;;
32096;SDS011;18610;49.916;8.284;2023-04-15T01:36:42;9.45;;;3.20;;
32096;SDS011;18610;49.916;8.284;2023-04-15T01:39:09;7.88;;;3.40;;
32096;SDS011;18610;49.916;8.284;2023-04-15T01:41:35;21.27;;;4.28;;
32096;SDS011;18610;49.916;8.284;2023-04-15T01:44:03;11.70;;;3.55;;
32096;SDS011;18610;49.916;8.284;2023-04-15T01:46:31;6.75;;;3.22;;
32096;SDS011;18610;49.916;8.284;2023-04-15T01:48:58;12.02;;;3.17;;
32096;SDS011;18610;49.916;8.284;2023-04-15T01:51:24;7.72;;;2.78;;
32096;SDS011;18610;49.916;8.284;2023-04-15T01:53:51;9.15;;;3.08;;
32096;SDS011;18610;49.916;8.284;2023-04-15T01:56:20;8.95;;;4.03;;
32096;SDS011;18610;49.916;8.284;2023-04-15T01:58:48;5.63;;;2.67;;
32096;SDS011;18610;49.916;8.284;2023-04-15T02:01:16;9.15;;;3.15;;
32096;SDS011;18610;49.916;8.284;2023-04-15T02:03:44;6.55;;;2.80;;
32096;SDS011;18610;49.916;8.284;2023-04-15T02:06:11;14.57;;;3.88;;
32096;SDS011;18610;49.916;8.284;2023-04-15T02:08:38;16.35;;;3.63;;
32096;SDS011;18610;49.916;8.284;2023-04-15T02:11:05;7.78;;;3.10;;
32096;SDS011;18610;49.916;8.284;2023-04-15T02:13:32;9.48;;;3.85;;
32096;SDS011;18610;49.916;8.284;2023-04-15T02:15:58;8.30;;;3.22;;
32096;SDS011;18610;49.916;8.284;2023-04-15T02:18:26;9.70;;;3.53;;
32096;SDS011;18610;49.916;8.284;2023-04-15T02:20:53;11.40;;;3.30;;
32096;SDS011;18610;49.916;8.284;2023-04-15T02:23:21;12.07;;;3.50;;
32096;SDS011;18610;49.916;8.284;2023-04-15T02:25:47;9.50;;;4.35;;
32096;SDS011;18610;49.916;8.284;2023-04-15T02:28:15;14.80;;;3.65;;
32096;SDS011;18610;49.916;8.284;2023-04-15T02:30:41;9.70;;;3.92;;
32096;SDS011;18610;49.916;8.284;2023-04-15T02:33:08;11.57;;;3.47;;
32096;SDS011;18610;49.916;8.284;2023-04-15T02:35:36;10.48;;;3.30;;
32096;SDS011;18610;49.916;8.284;2023-04-15T02:38:06;11.63;;;4.13;;
32096;SDS011;18610;49.916;8.284;2023-04-15T02:40:33;10.25;;;4.50;;
32096;SDS011;18610;49.916;8.284;2023-04-15T02:43:00;11.88;;;4.63;;
32096;SDS011;18610;49.916;8.284;2023-04-15T02:45:26;6.65;;;4.00;;
32096;SDS011;18610;49.916;8.284;2023-04-15T02:47:53;9.20;;;4.10;;
32096;SDS011;18610;49.916;8.284;2023-04-15T02:50:20;14.02;;;3.70;;
32096;SDS011;18610;49.916;8.284;2023-04-15T02:52:49;13.38;;;4.97;;
32096;SDS011;18610;49.916;8.284;2023-04-15T02:55:16;12.25;;;4.15;;
32096;SDS011;18610;49.916;8.284;2023-04-15T02:57:43;13.38;;;5.47;;
32096;SDS011;18610;49.916;8.284;2023-04-15T03:00:10;15.15;;;4.53;;
32096;SDS011;18610;49.916;8.284;2023-04-15T03:02:38;9.98;;;4.30;;
32096;SDS011;18610;49.916;8.284;2023-04-15T03:05:06;11.85;;;4.30;;
32096;SDS011;18610;49.916;8.284;2023-04-15T03:07:36;12.05;;;3.67;;
32096;SDS011;18610;49.916;8.284;2023-04-15T03:10:06;9.25;;;3.95;;
32096;SDS011;18610;49.916;8.284;2023-04-15T03:12:33;11.35;;;3.95;;
32096;SDS011;18610;49.916;8.284;2023-04-15T03:15:00;14.77;;;4.53;;
32096;SDS011;18610;49.916;8.284;2023-04-15T03:17:27;8.73;;;3.97;;
32096;SDS011;18610;49.916;8.284;2023-04-15T03:19:53;7.85;;;4.43;;
32096;SDS011;18610;49.916;8.284;2023-04-15T03:22:20;15.32;;;4.72;;
32096;SDS011;18610;49.916;8.284;2023-04-15T03:24:47;11.68;;;3.70;;
32096;SDS011;18610;49.916;8.284;2023-04-15T03:27:15;15.18;;;4.28;;
32096;SDS011;18610;49.916;8.284;2023-04-15T03:29:42;12.55;;;4.30;;
32096;SDS011;18610;49.916;8.284;2023-04-15T03:32:08;9.82;;;4.45;;
32096;SDS011;18610;49.916;8.284;2023-04-15T03:34:36;14.75;;;3.55;;
32096;SDS011;18610;49.916;8.284;2023-04-15T03:37:03;9.50;;;4.07;;
32096;SDS011;18610;49.916;8.284;2023-04-15T03:39:30;6.82;;;3.80;;
32096;SDS011;18610;49.916;8.284;2023-04-15T03:41:57;7.63;;;3.72;;
32096;SDS011;18610;49.916;8.284;2023-04-15T03:44:26;7.72;;;4.30;;
32096;SDS011;18610;49.916;8.284;2023-04-15T03:46:53;7.43;;;3.95;;
32096;SDS011;18610;49.916;8.284;2023-04-15T03:49:20;9.52;;;3.83;;
32096;SDS011;18610;49.916;8.284;2023-04-15T03:51:47;11.18;;;4.47;;
32096;SDS011;18610;49.916;8.284;2023-04-15T03:54:14;11.85;;;4.22;;
32096;SDS011;18610;49.916;8.284;2023-04-15T03:56:41;9.88;;;3.97;;
32096;SDS011;18610;49.916;8.284;2023-04-15T03:59:08;8.23;;;3.80;;
32096;SDS011;18610;49.916;8.284;2023-04-15T04:01:36;7.05;;;4.18;;
32096;SDS011;18610;49.916;8.284;2023-04-15T04:04:03;14.73;;;4.20;;
32096;SDS011;18610;49.916;8.284;2023-04-15T04:06:30;7.43;;;4.05;;
32096;SDS011;18610;49.916;8.284;2023-04-15T04:08:57;9.23;;;3.58;;
32096;SDS011;18610;49.916;8.284;2023-04-15T04:11:24;7.43;;;4.05;;
32096;SDS011;18610;49.916;8.284;2023-04-15T04:13:50;8.48;;;3.42;;
32096;SDS011;18610;49.916;8.284;2023-04-15T04:16:17;7.88;;;3.95;;
32096;SDS011;18610;49.916;8.284;2023-04-15T04:18:45;7.00;;;3.35;;
32096;SDS011;18610;49.916;8.284;2023-04-15T04:21:12;8.13;;;3.63;;
32096;SDS011;18610;49.916;8.284;2023-04-15T04:23:38;12.82;;;3.72;;
32096;SDS011;18610;49.916;8.284;2023-04-15T04:26:05;7.55;;;3.70;;
32096;SDS011;18610;49.916;8.284;2023-04-15T04:28:32;8.55;;;3.30;;
32096;SDS011;18610;49.916;8.284;2023-04-15T04:31:00;10.43;;;3.97;;
32096;SDS011;18610;49.916;8.284;2023-04-15T04:33:27;10.18;;;3.70;;
32096;SDS011;18610;49.916;8.284;2023-04-15T04:35:55;13.10;;;4.20;;
32096;SDS011;18610;49.916;8.284;2023-04-15T04:38:21;10.90;;;4.32;;
32096;SDS011;18610;49.916;8.284;2023-04-15T04:40:48;14.30;;;4.63;;
32096;SDS011;18610;49.916;8.284;2023-04-15T04:43:15;8.65;;;4.28;;
32096;SDS011;18610;49.916;8.284;2023-04-15T04:45:42;10.75;;;4.00;;
32096;SDS011;18610;49.916;8.284;2023-04-15T04:48:09;10.43;;;3.40;;
32096;SDS011;18610;49.916;8.284;2023-04-15T04:50:35;12.32;;;4.90;;
32096;SDS011;18610;49.916;8.284;2023-04-15T04:53:03;18.80;;;4.03;;
32096;SDS011;18610;49.916;8.284;2023-04-15T04:55:30;11.15;;;4.20;;
32096;SDS011;18610;49.916;8.284;2023-04-15T04:57:57;9.45;;;3.97;;
32096;SDS011;18610;49.916;8.284;2023-04-15T05:00:24;11.38;;;4.40;;
32096;SDS011;18610;49.916;8.284;2023-04-15T05:02:51;12.07;;;4.65;;
32096;SDS011;18610;49.916;8.284;2023-04-15T05:05:17;16.88;;;6.20;;
32096;SDS011;18610;49.916;8.284;2023-04-15T05:07:44;15.88;;;7.30;;
32096;SDS011;18610;49.916;8.284;2023-04-15T05:10:12;16.65;;;7.43;;
32096;SDS011;18610;49.916;8.284;2023-04-15T05:12:41;16.30;;;6.40;;
32096;SDS011;18610;49.916;8.284;2023-04-15T05:15:08;14.63;;;6.40;;
32096;SDS011;18610;49.916;8.284;2023-04-15T05:17:36;10.15;;;4.97;;
32096;SDS011;18610;49.916;8.284;2023-04-15T05:20:03;18.73;;;5.38;;
32096;SDS011;18610;49.916;8.284;2023-04-15T05:22:31;14.45;;;5.45;;
32096;SDS011;18610;49.916;8.284;2023-04-15T05:24:57;11.73;;;4.43;;
32096;SDS011;18610;49.916;8.284;2023-04-15T05:27:25;8.93;;;4.20;;
32096;SDS011;18610;49.916;8.284;2023-04-15T05:29:52;11.40;;;4.90;;
32096;SDS011;18610;49.916;8.284;2023-04-15T05:32:20;12.70;;;4.78;;
32096;SDS011;18610;49.916;8.284;2023-04-15T05:34:47;20.98;;;4.93;;
32096;SDS011;18610;49.916;8.284;2023-04-15T05:37:14;19.63;;;5.07;;
32096;SDS011;18610;49.916;8.284;2023-04-15T05:39:40;14.45;;;5.45;;
32096;SDS011;18610;49.916;8.284;2023-04-15T05:42:07;9.40;;;4.63;;
32096;SDS011;18610;49.916;8.284;2023-04-15T05:44:35;13.50;;;4.82;;
32096;SDS011;18610;49.916;8.284;2023-04-15T05:47:02;10.40;;;4.55;;
32096;SDS011;18610;49.916;8.284;2023-04-15T05:49:29;7.53;;;3.78;;
32096;SDS011;18610;49.916;8.284;2023-04-15T05:51:56;11.43;;;4.85;;
32096;SDS011;18610;49.916;8.284;2023-04-15T05:54:24;12.65;;;4.78;;
32096;SDS011;18610;49.916;8.284;2023-04-15T05:56:51;6.82;;;4.53;;
32096;SDS011;18610;49.916;8.284;2023-04-15T05:59:18;15.82;;;4.47;;
32096;SDS011;18610;49.916;8.284;2023-04-15T06:01:47;9.27;;;3.83;;
32096;SDS011;18610;49.916;8.284;2023-04-15T06:04:16;9.30;;;4.15;;
32096;SDS011;18610;49.916;8.284;2023-04-15T06:06:42;11.20;;;3.92;;
32096;SDS011;18610;49.916;8.284;2023-04-15T06:09:09;13.25;;;5.43;;
32096;SDS011;18610;49.916;8.284;2023-04-15T06:11:36;12.85;;;5.22;;
32096;SDS011;18610;49.916;8.284;2023-04-15T06:14:03;10.02;;;4.72;;
32096;SDS011;18610;49.916;8.284;2023-04-15T06:16:29;9.50;;;4.43;;
32096;SDS011;18610;49.916;8.284;2023-04-15T06:18:57;13.82;;;4.90;;
32096;SDS011;18610;49.916;8.284;2023-04-15T06:21:24;18.98;;;5.13;;
32096;SDS011;18610;49.916;8.284;2023-04-15T06:23:51;10.05;;;5.70;;
32096;SDS011;18610;49.916;8.284;2023-04-15T06:26:18;17.52;;;5.47;;
32096;SDS011;18610;49.916;8.284;2023-04-15T06:28:45;23.23;;;5.78;;
32096;SDS011;18610;49.916;8.284;2023-04-15T06:31:11;17.73;;;5.57;;
32096;SDS011;18610;49.916;8.284;2023-04-15T06:33:38;12.95;;;5.13;;
32096;SDS011;18610;49.916;8.284;2023-04-15T06:36:06;12.23;;;4.60;;
32096;SDS011;18610;49.916;8.284;2023-04-15T06:38:33;12.27;;;4.90;;
32096;SDS011;18610;49.916;8.284;2023-04-15T06:41:00;13.88;;;5.78;;
32096;SDS011;18610;49.916;8.284;2023-04-15T06:43:29;11.88;;;4.93;;
32096;SDS011;18610;49.916;8.284;2023-04-15T06:45:57;12.23;;;4.50;;
32096;SDS011;18610;49.916;8.284;2023-04-15T06:48:24;17.95;;;4.65;;
32096;SDS011;18610;49.916;8.284;2023-04-15T06:50:51;10.00;;;4.20;;
32096;SDS011;18610;49.916;8.284;2023-04-15T06:53:19;14.93;;;5.13;;
32096;SDS011;18610;49.916;8.284;2023-04-15T06:55:46;8.07;;;4.88;;
32096;SDS011;18610;49.916;8.284;2023-04-15T06:58:13;11.00;;;4.78;;
32096;SDS011;18610;49.916;8.284;2023-04-15T07:00:41;14.48;;;5.03;;
32096;SDS011;18610;49.916;8.284;2023-04-15T07:03:08;14.18;;;5.07;;
32096;SDS011;18610;49.916;8.284;2023-04-15T07:05:36;12.52;;;4.97;;
32096;SDS011;18610;49.916;8.284;2023-04-15T07:08:03;14.32;;;5.15;;
32096;SDS011;18610;49.916;8.284;2023-04-15T07:10:32;17.90;;;4.80;;
32096;SDS011;18610;49.916;8.284;2023-04-15T07:12:58;10.45;;;3.75;;
32096;SDS011;18610;49.916;8.284;2023-04-15T07:15:26;11.55;;;4.43;;
32096;SDS011;18610;49.916;8.284;2023-04-15T07:17:52;12.35;;;4.90;;
32096;SDS011;18610;49.916;8.284;2023-04-15T07:20:20;10.50;;;4.70;;
32096;SDS011;18610;49.916;8.284;2023-04-15T07:22:47;17.15;;;5.35;;
32096;SDS011;18610;49.916;8.284;2023-04-15T07:25:13;13.48;;;5.43;;
32096;SDS011;18610;49.916;8.284;2023-04-15T07:27:43;17.63;;;6.15;;
32096;SDS011;18610;49.916;8.284;2023-04-15T07:30:10;13.90;;;6.30;;
32096;SDS011;18610;49.916;8.284;2023-04-15T07:32:37;16.85;;;5.70;;
32096;SDS011;18610;49.916;8.284;2023-04-15T07:35:04;11.88;;;5.57;;
32096;SDS011;18610;49.916;8.284;2023-04-15T07:37:31;14.05;;;6.30;;
32096;SDS011;18610;49.916;8.284;2023-04-15T07:39:58;12.13;;;5.05;;
32096;SDS011;18610;49.916;8.284;2023-04-15T07:42:25;10.88;;;4.80;;
32096;SDS011;18610;49.916;8.284;2023-04-15T07:44:54;10.15;;;4.85;;
32096;SDS011;18610;49.916;8.284;2023-04-15T07:47:22;10.82;;;4.43;;
32096;SDS011;18610;49.916;8.284;2023-04-15T07:49:48;9.90;;;4.10;;
32096;SDS011;18610;49.916;8.284;2023-04-15T07:52:16;7.05;;;3.83;;
32096;SDS011;18610;49.916;8.284;2023-04-15T07:54:43;12.82;;;3.67;;
32096;SDS011;18610;49.916;8.284;2023-04-15T07:57:10;11.93;;;4.78;;
32096;SDS011;18610;49.916;8.284;2023-04-15T07:59:37;9.68;;;4.10;;
32096;SDS011;18610;49.916;8.284;2023-04-15T08:02:05;13.02;;;4.47;;
32096;SDS011;18610;49.916;8.284;2023-04-15T08:04:32;10.95;;;4.68;;
32096;SDS011;18610;49.916;8.284;2023-04-15T08:06:59;12.45;;;5.40;;
32096;SDS011;18610;49.916;8.284;2023-04-15T08:09:26;12.48;;;5.13;;
32096;SDS011;18610;49.916;8.284;2023-04-15T08:11:53;12.93;;;5.43;;
32096;SDS011;18610;49.916;8.284;2023-04-15T08:14:20;11.75;;;4.35;;
32096;SDS011;18610;49.916;8.284;2023-04-15T08:16:47;12.93;;;4.88;;
32096;SDS011;18610;49.916;8.284;2023-04-15T08:19:15;13.90;;;5.57;;
32096;SDS011;18610;49.916;8.284;2023-04-15T08:21:42;19.30;;;4.97;;
32096;SDS011;18610;49.916;8.284;2023-04-15T08:24:08;10.10;;;4.05;;
32096;SDS011;18610;49.916;8.284;2023-04-15T08:26:37;13.38;;;4.97;;
32096;SDS011;18610;49.916;8.284;2023-04-15T08:29:03;11.50;;;4.75;;
32096;SDS011;18610;49.916;8.284;2023-04-15T08:31:30;13.43;;;4.18;;
32096;SDS011;18610;49.916;8.284;2023-04-15T08:33:59;8.77;;;4.20;;
32096;SDS011;18610;49.916;8.284;2023-04-15T08:36:28;10.27;;;4.50;;
32096;SDS011;18610;49.916;8.284;2023-04-15T08:38:56;10.25;;;4.45;;
32096;SDS011;18610;49.916;8.284;2023-04-15T08:41:38;12.95;;;4.53;;
32096;SDS011;18610;49.916;8.284;2023-04-15T08:44:08;11.25;;;4.20;;
32096;SDS011;18610;49.916;8.284;2023-04-15T08:46:35;7.30;;;3.83;;
32096;SDS011;18610;49.916;8.284;2023-04-15T08:49:04;12.00;;;4.30;;
32096;SDS011;18610;49.916;8.284;2023-04-15T08:51:34;9.38;;;3.88;;
32096;SDS011;18610;49.916;8.284;2023-04-15T08:54:01;9.48;;;3.88;;
32096;SDS011;18610;49.916;8.284;2023-04-15T08:56:30;9.20;;;4.10;;
32096;SDS011;18610;49.916;8.284;2023-04-15T08:58:57;11.02;;;4.22;;
32096;SDS011;18610;49.916;8.284;2023-04-15T09:01:25;10.10;;;4.78;;
32096;SDS011;18610;49.916;8.284;2023-04-15T09:03:52;17.08;;;4.80;;
32096;SDS011;18610;49.916;8.284;2023-04-15T09:06:19;12.68;;;3.70;;
32096;SDS011;18610;49.916;8.284;2023-04-15T09:08:48;12.05;;;4.13;;
32096;SDS011;18610;49.916;8.284;2023-04-15T09:11:15;9.75;;;3.65;;
32096;SDS011;18610;49.916;8.284;2023-04-15T09:13:43;8.60;;;3.33;;
32096;SDS011;18610;49.916;8.284;2023-04-15T09:16:10;10.10;;;3.95;;
32096;SDS011;18610;49.916;8.284;2023-04-15T09:18:37;9.25;;;4.35;;
32096;SDS011;18610;49.916;8.284;2023-04-15T09:21:05;8.65;;;4.13;;
32096;SDS011;18610;49.916;8.284;2023-04-15T09:23:33;9.18;;;3.33;;
32096;SDS011;18610;49.916;8.284;2023-04-15T09:26:02;14.23;;;3.70;;
32096;SDS011;18610;49.916;8.284;2023-04-15T09:28:29;8.27;;;3.85;;
32096;SDS011;18610;49.916;8.284;2023-04-15T09:30:56;8.93;;;3.30;;
32096;SDS011;18610;49.916;8.284;2023-04-15T09:33:23;8.27;;;3.33;;
32096;SDS011;18610;49.916;8.284;2023-04-15T09:35:55;8.45;;;3.47;;
32096;SDS011;18610;49.916;8.284;2023-04-15T09:38:23;13.70;;;3.80;;
32096;SDS011;18610;49.916;8.284;2023-04-15T09:40:50;12.05;;;3.20;;
32096;SDS011;18610;49.916;8.284;2023-04-15T09:43:18;9.82;;;3.33;;
32096;SDS011;18610;49.916;8.284;2023-04-15T09:45:46;13.95;;;3.33;;
32096;SDS011;18610;49.916;8.284;2023-04-15T09:48:15;8.85;;;3.42;;
32096;SDS011;18610;49.916;8.284;2023-04-15T09:50:45;9.13;;;3.03;;
32096;SDS011;18610;49.916;8.284;2023-04-15T09:53:15;10.23;;;3.65;;
32096;SDS011;18610;49.916;8.284;2023-04-15T09:55:44;8.15;;;3.42;;
32096;SDS011;18610;49.916;8.284;2023-04-15T09:58:16;8.60;;;2.63;;
32096;SDS011;18610;49.916;8.284;2023-04-15T10:00:46;6.72;;;2.50;;
32096;SDS011;18610;49.916;8.284;2023-04-15T10:03:15;8.50;;;2.85;;
32096;SDS011;18610;49.916;8.284;2023-04-15T10:05:45;6.28;;;2.95;;
32096;SDS011;18610;49.916;8.284;2023-04-15T10:08:14;8.68;;;2.17;;
32096;SDS011;18610;49.916;8.284;2023-04-15T10:10:45;7.47;;;2.83;;
32096;SDS011;18610;49.916;8.284;2023-04-15T10:13:13;6.68;;;2.17;;
32096;SDS011;18610;49.916;8.284;2023-04-15T10:15:44;5.90;;;1.70;;
32096;SDS011;18610;49.916;8.284;2023-04-15T10:18:15;10.48;;;1.65;;
32096;SDS011;18610;49.916;8.284;2023-04-15T10:20:45;7.65;;;1.48;;
32096;SDS011;18610;49.916;8.284;2023-04-15T10:23:13;3.10;;;1.08;;
32096;SDS011;18610;49.916;8.284;2023-04-15T10:25:40;3.72;;;1.42;;
32096;SDS011;18610;49.916;8.284;2023-04-15T10:28:07;4.95;;;2.03;;
32096;SDS011;18610;49.916;8.284;2023-04-15T10:30:34;2.45;;;1.00;;
32096;SDS011;18610;49.916;8.284;2023-04-15T10:33:04;4.30;;;1.08;;
32096;SDS011;18610;49.916;8.284;2023-04-15T10:35:32;6.43;;;1.13;;
32096;SDS011;18610;49.916;8.284;2023-04-15T10:37:59;4.38;;;1.00;;
32096;SDS011;18610;49.916;8.284;2023-04-15T10:40:27;4.60;;;1.70;;
32096;SDS011;18610;49.916;8.284;2023-04-15T10:42:56;3.92;;;1.25;;
32096;SDS011;18610;49.916;8.284;2023-04-15T10:45:24;3.72;;;1.20;;
32096;SDS011;18610;49.916;8.284;2023-04-15T10:47:56;7.40;;;2.03;;
32096;SDS011;18610;49.916;8.284;2023-04-15T10:50:26;5.40;;;1.25;;
32096;SDS011;18610;49.916;8.284;2023-04-15T10:52:54;4.97;;;1.63;;
32096;SDS011;18610;49.916;8.284;2023-04-15T10:55:22;3.97;;;1.30;;
32096;SDS011;18610;49.916;8.284;2023-04-15T10:57:51;4.03;;;1.17;;
32096;SDS011;18610;49.916;8.284;2023-04-15T11:00:19;5.03;;;1.50;;
32096;SDS011;18610;49.916;8.284;2023-04-15T11:02:51;4.28;;;1.20;;
32096;SDS011;18610;49.916;8.284;2023-04-15T11:05:19;5.07;;;1.17;;
32096;SDS011;18610;49.916;8.284;2023-04-15T11:07:49;4.50;;;1.20;;
32096;SDS011;18610;49.916;8.284;2023-04-15T11:13:20;8.80;;;1.33;;
32096;SDS011;18610;49.916;8.284;2023-04-15T11:15:56;5.88;;;1.30;;
32096;SDS011;18610;49.916;8.284;2023-04-15T11:18:26;4.10;;;1.30;;
32096;SDS011;18610;49.916;8.284;2023-04-15T11:20:55;2.40;;;1.30;;
32096;SDS011;18610;49.916;8.284;2023-04-15T11:23:28;2.80;;;1.27;;
32096;SDS011;18610;49.916;8.284;2023-04-15T11:25:56;6.25;;;1.35;;
32096;SDS011;18610;49.916;8.284;2023-04-15T11:28:25;4.75;;;1.20;;
32096;SDS011;18610;49.916;8.284;2023-04-15T11:30:53;2.90;;;1.27;;
32096;SDS011;18610;49.916;8.284;2023-04-15T11:33:20;2.22;;;1.30;;
32096;SDS011;18610;49.916;8.284;2023-04-15T11:35:48;5.18;;;0.98;;
32096;SDS011;18610;49.916;8.284;2023-04-15T11:38:17;4.40;;;1.30;;
32096;SDS011;18610;49.916;8.284;2023-04-15T11:40:45;2.22;;;1.17;;
32096;SDS011;18610;49.916;8.284;2023-04-15T11:43:13;2.08;;;1.10;;
32096;SDS011;18610;49.916;8.284;2023-04-15T11:45:49;3.20;;;1.40;;
32096;SDS011;18610;49.916;8.284;2023-04-15T11:48:18;4.88;;;0.90;;
32096;SDS011;18610;49.916;8.284;2023-04-15T11:50:45;5.53;;;0.80;;
32096;SDS011;18610;49.916;8.284;2023-04-15T11:53:17;1.90;;;0.57;;
32096;SDS011;18610;49.916;8.284;2023-04-15T11:55:46;2.65;;;0.77;;
32096;SDS011;18610;49.916;8.284;2023-04-15T11:58:14;2.83;;;0.70;;
32096;SDS011;18610;49.916;8.284;2023-04-15T12:00:46;6.72;;;0.70;;
32096;SDS011;18610;49.916;8.284;2023-04-15T12:03:15;3.20;;;0.70;;
32096;SDS011;18610;49.916;8.284;2023-04-15T12:06:05;3.17;;;0.70;;
32096;SDS011;18610;49.916;8.284;2023-04-15T12:08:49;1.58;;;0.73;;
32096;SDS011;18610;49.916;8.284;2023-04-15T12:11:33;1.90;;;0.95;;
32096;SDS011;18610;49.916;8.284;2023-04-15T12:14:03;3.75;;;0.65;;
32096;SDS011;18610;49.916;8.284;2023-04-15T12:16:35;3.92;;;0.90;;
32096;SDS011;18610;49.916;8.284;2023-04-15T12:19:03;1.08;;;0.70;;
32096;SDS011;18610;49.916;8.284;2023-04-15T12:21:35;1.67;;;0.70;;
32096;SDS011;18610;49.916;8.284;2023-04-15T12:24:03;0.97;;;0.80;;
32096;SDS011;18610;49.916;8.284;2023-04-15T12:26:34;3.70;;;0.70;;
32096;SDS011;18610;49.916;8.284;2023-04-15T12:29:03;1.65;;;0.82;;
32096;SDS011;18610;49.916;8.284;2023-04-15T12:31:30;0.88;;;0.65;;
32096;SDS011;18610;49.916;8.284;2023-04-15T12:33:58;1.33;;;0.75;;
32096;SDS011;18610;49.916;8.284;2023-04-15T12:36:26;2.35;;;0.80;;
32096;SDS011;18610;49.916;8.284;2023-04-15T12:38:54;0.75;;;0.70;;
32096;SDS011;18610;49.916;8.284;2023-04-15T12:41:20;1.50;;;0.80;;
32096;SDS011;18610;49.916;8.284;2023-04-15T12:43:49;1.65;;;1.10;;
32096;SDS011;18610;49.916;8.284;2023-04-15T12:46:16;1.73;;;1.00;;
32096;SDS011;18610;49.916;8.284;2023-04-15T12:48:43;0.73;;;0.73;;
32096;SDS011;18610;49.916;8.284;2023-04-15T12:51:09;3.55;;;0.77;;
32096;SDS011;18610;49.916;8.284;2023-04-15T12:53:36;4.20;;;0.73;;
32096;SDS011;18610;49.916;8.284;2023-04-15T12:56:03;1.00;;;0.80;;
32096;SDS011;18610;49.916;8.284;2023-04-15T12:58:30;7.10;;;1.10;;
32096;SDS011;18610;49.916;8.284;2023-04-15T13:00:58;0.80;;;0.80;;
32096;SDS011;18610;49.916;8.284;2023-04-15T13:03:25;2.10;;;1.10;;
32096;SDS011;18610;49.916;8.284;2023-04-15T13:05:52;0.85;;;0.70;;
32096;SDS011;18610;49.916;8.284;2023-04-15T13:08:19;2.78;;;1.38;;
32096;SDS011;18610;49.916;8.284;2023-04-15T13:10:46;1.15;;;0.80;;
32096;SDS011;18610;49.916;8.284;2023-04-15T14:31:52;2.45;;;1.45;;
32096;SDS011;18610;49.916;8.284;2023-04-15T14:34:21;2.28;;;1.08;;
32096;SDS011;18610;49.916;8.284;2023-04-15T14:36:49;1.45;;;1.27;;
32096;SDS011;18610;49.916;8.284;2023-04-15T14:39:16;2.20;;;1.30;;
32096;SDS011;18610;49.916;8.284;2023-04-15T14:41:43;1.80;;;1.30;;
32096;SDS011;18610;49.916;8.284;2023-04-15T14:44:10;2.35;;;1.50;;
32096;SDS011;18610;49.916;8.284;2023-04-15T14:46:36;2.25;;;1.42;;
32096;SDS011;18610;49.916;8.284;2023-04-15T14:49:06;2.67;;;1.50;;
32096;SDS011;18610;49.916;8.284;2023-04-15T14:51:32;1.77;;;1.50;;
32096;SDS011;18610;49.916;8.284;2023-04-15T14:53:59;1.63;;;1.52;;
32096;SDS011;18610;49.916;8.284;2023-04-15T14:56:26;3.00;;;1.42;;
32096;SDS011;18610;49.916;8.284;2023-04-15T14:58:53;1.70;;;1.60;;
32096;SDS011;18610;49.916;8.284;2023-04-15T15:01:19;6.38;;;1.73;;
32096;SDS011;18610;49.916;8.284;2023-04-15T15:03:46;2.33;;;1.70;;
32096;SDS011;18610;49.916;8.284;2023-04-15T15:06:15;2.92;;;2.03;;
32096;SDS011;18610;49.916;8.284;2023-04-15T15:08:42;1.50;;;1.38;;
32096;SDS011;18610;49.916;8.284;2023-04-15T15:11:08;3.40;;;2.15;;
32096;SDS011;18610;49.916;8.284;2023-04-15T15:13:35;3.20;;;2.35;;
32096;SDS011;18610;49.916;8.284;2023-04-15T15:16:02;2.65;;;2.22;;
32096;SDS011;18610;49.916;8.284;2023-04-15T15:18:29;5.13;;;2.80;;
32096;SDS011;18610;49.916;8.284;2023-04-15T15:20:56;2.47;;;2.00;;
32096;SDS011;18610;49.916;8.284;2023-04-15T15:23:24;3.42;;;2.45;;
32096;SDS011;18610;49.916;8.284;2023-04-15T15:25:51;3.20;;;2.40;;
32096;SDS011;18610;49.916;8.284;2023-04-15T15:28:17;5.15;;;2.75;;
32096;SDS011;18610;49.916;8.284;2023-04-15T15:30:45;2.85;;;1.95;;
32096;SDS011;18610;49.916;8.284;2023-04-15T15:33:12;2.40;;;2.20;;
32096;SDS011;18610;49.916;8.284;2023-04-15T15:35:39;2.53;;;1.88;;
32096;SDS011;18610;49.916;8.284;2023-04-15T15:38:06;4.68;;;3.35;;
32096;SDS011;18610;49.916;8.284;2023-04-15T15:40:34;2.88;;;2.65;;
32096;SDS011;18610;49.916;8.284;2023-04-15T15:43:02;3.72;;;2.90;;
32096;SDS011;18610;49.916;8.284;2023-04-15T15:45:29;3.13;;;2.80;;
32096;SDS011;18610;49.916;8.284;2023-04-15T15:47:56;3.58;;;2.97;;
32096;SDS011;18610;49.916;8.284;2023-04-15T15:50:24;4.40;;;2.60;;
32096;SDS011;18610;49.916;8.284;2023-04-15T15:52:50;8.35;;;3.20;;
32096;SDS011;18610;49.916;8.284;2023-04-15T15:55:17;5.88;;;2.70;;
32096;SDS011;18610;49.916;8.284;2023-04-15T15:57:45;3.58;;;3.10;;
32096;SDS011;18610;49.916;8.284;2023-04-15T16:00:12;2.90;;;2.67;;
32096;SDS011;18610;49.916;8.284;2023-04-15T16:02:39;2.97;;;2.70;;
32096;SDS011;18610;49.916;8.284;2023-04-15T16:05:07;4.75;;;3.38;;